sensor_id;sensor_type;location;lat;lon;timestamp;P1;durP1;ratioP1;P2;durP2;ratioP2
9080;SDS011;13509;50.760;6.080;2022-09-17T00:01:30;5.77;;;3.87;;
9080;SDS011;13509;50.760;6.080;2022-09-17T00:03:59;7.90;;;4.03;;
9080;SDS011;13509;50.760;6.080;2022-09-17T00:06:30;6.77;;;4.43;;
9080;SDS011;13509;50.760;6.080;2022-09-17T00:09:00;10.40;;;3.57;;
9080;SDS011;13509;50.760;6.080;2022-09-17T00:11:28;8.50;;;3.97;;
9080;SDS011;13509;50.760;6.080;2022-09-17T00:13:57;7.53;;;3.87;;
9080;SDS011;13509;50.760;6.080;2022-09-17T00:16:27;8.70;;;3.40;;
9080;SDS011;13509;50.760;6.080;2022-09-17T00:18:56;8.87;;;3.93;;
9080;SDS011;13509;50.760;6.080;2022-09-17T00:21:25;8.13;;;3.73;;
9080;SDS011;13509;50.760;6.080;2022-09-17T00:23:53;6.63;;;3.43;;
9080;SDS011;13509;50.760;6.080;2022-09-17T00:26:23;8.00;;;3.90;;
9080;SDS011;13509;50.760;6.080;2022-09-17T00:28:52;7.80;;;3.67;;
9080;SDS011;13509;50.760;6.080;2022-09-17T00:31:20;5.67;;;3.67;;
9080;SDS011;13509;50.760;6.080;2022-09-17T00:33:49;7.97;;;3.73;;
9080;SDS011;13509;50.760;6.080;2022-09-17T00:36:18;8.93;;;3.90;;
9080;SDS011;13509;50.760;6.080;2022-09-17T00:38:47;8.73;;;3.60;;
9080;SDS011;13509;50.760;6.080;2022-09-17T00:41:16;7.97;;;3.37;;
9080;SDS011;13509;50.760;6.080;2022-09-17T00:43:46;9.13;;;4.03;;
9080;SDS011;13509;50.760;6.080;2022-09-17T00:46:21;5.90;;;3.30;;
9080;SDS011;13509;50.760;6.080;2022-09-17T00:48:51;9.47;;;2.87;;
9080;SDS011;13509;50.760;6.080;2022-09-17T00:51:22;11.83;;;3.20;;
9080;SDS011;13509;50.760;6.080;2022-09-17T00:53:52;4.77;;;2.80;;
9080;SDS011;13509;50.760;6.080;2022-09-17T00:56:21;8.77;;;3.10;;
9080;SDS011;13509;50.760;6.080;2022-09-17T00:58:52;10.77;;;3.70;;
9080;SDS011;13509;50.760;6.080;2022-09-17T01:01:20;7.70;;;3.50;;
9080;SDS011;13509;50.760;6.080;2022-09-17T01:03:49;10.40;;;3.83;;
9080;SDS011;13509;50.760;6.080;2022-09-17T01:06:19;7.30;;;3.20;;
9080;SDS011;13509;50.760;6.080;2022-09-17T01:08:53;5.37;;;3.00;;
9080;SDS011;13509;50.760;6.080;2022-09-17T01:11:30;8.37;;;3.57;;
9080;SDS011;13509;50.760;6.080;2022-09-17T01:14:05;10.17;;;3.67;;
9080;SDS011;13509;50.760;6.080;2022-09-17T01:16:39;7.70;;;3.03;;
9080;SDS011;13509;50.760;6.080;2022-09-17T01:19:16;9.17;;;3.30;;
9080;SDS011;13509;50.760;6.080;2022-09-17T01:21:50;12.00;;;4.23;;
9080;SDS011;13509;50.760;6.080;2022-09-17T01:27:15;10.37;;;5.30;;
9080;SDS011;13509;50.760;6.080;2022-09-17T01:29:58;9.70;;;4.23;;
9080;SDS011;13509;50.760;6.080;2022-09-17T01:32:32;12.70;;;4.23;;
9080;SDS011;13509;50.760;6.080;2022-09-17T01:35:04;9.50;;;3.87;;
9080;SDS011;13509;50.760;6.080;2022-09-17T01:37:35;8.00;;;4.60;;
9080;SDS011;13509;50.760;6.080;2022-09-17T01:40:06;9.43;;;4.53;;
9080;SDS011;13509;50.760;6.080;2022-09-17T01:42:36;11.30;;;4.43;;
9080;SDS011;13509;50.760;6.080;2022-09-17T01:45:07;6.37;;;3.57;;
9080;SDS011;13509;50.760;6.080;2022-09-17T01:47:38;8.97;;;4.57;;
9080;SDS011;13509;50.760;6.080;2022-09-17T01:50:09;8.87;;;4.37;;
9080;SDS011;13509;50.760;6.080;2022-09-17T01:52:39;7.70;;;4.13;;
9080;SDS011;13509;50.760;6.080;2022-09-17T01:55:09;13.47;;;4.73;;
9080;SDS011;13509;50.760;6.080;2022-09-17T01:57:39;7.83;;;4.80;;
9080;SDS011;13509;50.760;6.080;2022-09-17T02:00:08;7.03;;;4.43;;
9080;SDS011;13509;50.760;6.080;2022-09-17T02:02:40;7.90;;;4.53;;
9080;SDS011;13509;50.760;6.080;2022-09-17T02:05:13;10.03;;;4.40;;
9080;SDS011;13509;50.760;6.080;2022-09-17T02:07:43;12.50;;;4.57;;
9080;SDS011;13509;50.760;6.080;2022-09-17T02:10:13;8.20;;;4.57;;
9080;SDS011;13509;50.760;6.080;2022-09-17T02:12:43;6.77;;;4.50;;
9080;SDS011;13509;50.760;6.080;2022-09-17T02:15:13;10.97;;;4.77;;
9080;SDS011;13509;50.760;6.080;2022-09-17T02:17:45;10.53;;;4.50;;
9080;SDS011;13509;50.760;6.080;2022-09-17T02:20:15;12.40;;;4.50;;
9080;SDS011;13509;50.760;6.080;2022-09-17T02:22:49;11.17;;;4.70;;
9080;SDS011;13509;50.760;6.080;2022-09-17T02:25:19;11.13;;;5.00;;
9080;SDS011;13509;50.760;6.080;2022-09-17T02:27:50;8.63;;;4.80;;
9080;SDS011;13509;50.760;6.080;2022-09-17T02:30:19;8.63;;;4.67;;
9080;SDS011;13509;50.760;6.080;2022-09-17T02:32:49;11.13;;;5.10;;
9080;SDS011;13509;50.760;6.080;2022-09-17T02:35:17;7.23;;;4.70;;
9080;SDS011;13509;50.760;6.080;2022-09-17T02:37:45;13.67;;;4.97;;
9080;SDS011;13509;50.760;6.080;2022-09-17T02:40:14;8.93;;;4.93;;
9080;SDS011;13509;50.760;6.080;2022-09-17T02:42:49;13.73;;;4.70;;
9080;SDS011;13509;50.760;6.080;2022-09-17T02:45:23;15.30;;;4.80;;
9080;SDS011;13509;50.760;6.080;2022-09-17T02:50:51;10.50;;;5.07;;
9080;SDS011;13509;50.760;6.080;2022-09-17T02:53:30;18.43;;;4.77;;
9080;SDS011;13509;50.760;6.080;2022-09-17T02:56:07;8.23;;;4.00;;
9080;SDS011;13509;50.760;6.080;2022-09-17T02:58:39;10.57;;;4.40;;
9080;SDS011;13509;50.760;6.080;2022-09-17T03:01:11;9.30;;;4.07;;
9080;SDS011;13509;50.760;6.080;2022-09-17T03:03:42;8.73;;;3.83;;
9080;SDS011;13509;50.760;6.080;2022-09-17T03:06:12;13.57;;;3.70;;
9080;SDS011;13509;50.760;6.080;2022-09-17T03:08:41;8.97;;;3.27;;
9080;SDS011;13509;50.760;6.080;2022-09-17T03:11:09;13.27;;;4.17;;
9080;SDS011;13509;50.760;6.080;2022-09-17T03:13:39;12.93;;;4.27;;
9080;SDS011;13509;50.760;6.080;2022-09-17T03:16:07;9.77;;;4.83;;
9080;SDS011;13509;50.760;6.080;2022-09-17T03:18:35;12.90;;;5.00;;
9080;SDS011;13509;50.760;6.080;2022-09-17T03:21:03;9.20;;;4.77;;
9080;SDS011;13509;50.760;6.080;2022-09-17T03:23:33;8.40;;;4.30;;
9080;SDS011;13509;50.760;6.080;2022-09-17T03:26:01;8.93;;;3.93;;
9080;SDS011;13509;50.760;6.080;2022-09-17T03:28:29;11.67;;;4.57;;
9080;SDS011;13509;50.760;6.080;2022-09-17T03:30:57;7.37;;;4.23;;
9080;SDS011;13509;50.760;6.080;2022-09-17T03:33:26;9.40;;;4.03;;
9080;SDS011;13509;50.760;6.080;2022-09-17T03:35:54;6.03;;;3.63;;
9080;SDS011;13509;50.760;6.080;2022-09-17T03:38:23;8.47;;;3.70;;
9080;SDS011;13509;50.760;6.080;2022-09-17T03:40:59;10.07;;;3.23;;
9080;SDS011;13509;50.760;6.080;2022-09-17T03:43:27;7.73;;;2.93;;
9080;SDS011;13509;50.760;6.080;2022-09-17T03:45:55;9.03;;;3.00;;
9080;SDS011;13509;50.760;6.080;2022-09-17T03:48:23;8.33;;;3.43;;
9080;SDS011;13509;50.760;6.080;2022-09-17T03:50:51;9.83;;;4.03;;
9080;SDS011;13509;50.760;6.080;2022-09-17T03:53:20;10.67;;;2.93;;
9080;SDS011;13509;50.760;6.080;2022-09-17T03:55:48;11.67;;;3.23;;
9080;SDS011;13509;50.760;6.080;2022-09-17T03:58:17;12.40;;;3.03;;
9080;SDS011;13509;50.760;6.080;2022-09-17T04:00:46;8.37;;;2.90;;
9080;SDS011;13509;50.760;6.080;2022-09-17T04:03:18;12.33;;;3.20;;
9080;SDS011;13509;50.760;6.080;2022-09-17T04:05:47;7.10;;;2.47;;
9080;SDS011;13509;50.760;6.080;2022-09-17T04:08:15;6.83;;;2.43;;
9080;SDS011;13509;50.760;6.080;2022-09-17T04:10:44;10.13;;;3.30;;
9080;SDS011;13509;50.760;6.080;2022-09-17T04:13:13;12.93;;;2.50;;
9080;SDS011;13509;50.760;6.080;2022-09-17T04:15:43;6.10;;;2.30;;
9080;SDS011;13509;50.760;6.080;2022-09-17T04:18:12;7.63;;;2.17;;
9080;SDS011;13509;50.760;6.080;2022-09-17T04:20:40;6.07;;;2.10;;
9080;SDS011;13509;50.760;6.080;2022-09-17T04:23:09;8.43;;;2.43;;
9080;SDS011;13509;50.760;6.080;2022-09-17T04:25:37;9.40;;;2.23;;
9080;SDS011;13509;50.760;6.080;2022-09-17T04:28:05;9.33;;;2.30;;
9080;SDS011;13509;50.760;6.080;2022-09-17T04:30:34;9.87;;;2.10;;
9080;SDS011;13509;50.760;6.080;2022-09-17T04:33:03;6.60;;;2.00;;
9080;SDS011;13509;50.760;6.080;2022-09-17T04:35:31;7.73;;;2.60;;
9080;SDS011;13509;50.760;6.080;2022-09-17T04:38:00;10.67;;;2.70;;
9080;SDS011;13509;50.760;6.080;2022-09-17T04:40:28;8.27;;;3.30;;
9080;SDS011;13509;50.760;6.080;2022-09-17T04:42:56;9.27;;;2.93;;
9080;SDS011;13509;50.760;6.080;2022-09-17T04:45:28;6.93;;;2.80;;
9080;SDS011;13509;50.760;6.080;2022-09-17T04:47:58;7.40;;;2.47;;
9080;SDS011;13509;50.760;6.080;2022-09-17T04:50:28;5.80;;;2.60;;
9080;SDS011;13509;50.760;6.080;2022-09-17T04:52:56;9.30;;;2.80;;
9080;SDS011;13509;50.760;6.080;2022-09-17T04:55:24;8.97;;;2.83;;
9080;SDS011;13509;50.760;6.080;2022-09-17T04:57:53;9.83;;;2.90;;
9080;SDS011;13509;50.760;6.080;2022-09-17T05:00:21;10.20;;;2.80;;
9080;SDS011;13509;50.760;6.080;2022-09-17T05:02:50;10.00;;;2.83;;
9080;SDS011;13509;50.760;6.080;2022-09-17T05:05:19;6.40;;;2.50;;
9080;SDS011;13509;50.760;6.080;2022-09-17T05:07:50;6.70;;;2.43;;
9080;SDS011;13509;50.760;6.080;2022-09-17T05:10:19;7.77;;;2.80;;
9080;SDS011;13509;50.760;6.080;2022-09-17T05:12:47;8.70;;;2.63;;
9080;SDS011;13509;50.760;6.080;2022-09-17T05:15:16;5.20;;;2.57;;
9080;SDS011;13509;50.760;6.080;2022-09-17T05:17:44;8.97;;;2.80;;
9080;SDS011;13509;50.760;6.080;2022-09-17T05:20:14;12.47;;;3.03;;
9080;SDS011;13509;50.760;6.080;2022-09-17T05:22:43;9.13;;;2.20;;
9080;SDS011;13509;50.760;6.080;2022-09-17T05:25:13;9.03;;;1.93;;
9080;SDS011;13509;50.760;6.080;2022-09-17T05:27:41;7.33;;;2.40;;
9080;SDS011;13509;50.760;6.080;2022-09-17T05:30:10;11.10;;;2.40;;
9080;SDS011;13509;50.760;6.080;2022-09-17T05:32:38;7.33;;;2.13;;
9080;SDS011;13509;50.760;6.080;2022-09-17T05:35:07;6.97;;;1.97;;
9080;SDS011;13509;50.760;6.080;2022-09-17T05:37:36;6.80;;;2.30;;
9080;SDS011;13509;50.760;6.080;2022-09-17T05:40:04;8.60;;;2.20;;
9080;SDS011;13509;50.760;6.080;2022-09-17T05:42:35;5.47;;;1.90;;
9080;SDS011;13509;50.760;6.080;2022-09-17T05:45:04;6.13;;;1.80;;
9080;SDS011;13509;50.760;6.080;2022-09-17T05:47:32;10.13;;;1.73;;
9080;SDS011;13509;50.760;6.080;2022-09-17T05:50:01;5.80;;;2.10;;
9080;SDS011;13509;50.760;6.080;2022-09-17T05:52:29;10.10;;;2.37;;
9080;SDS011;13509;50.760;6.080;2022-09-17T05:54:57;10.93;;;2.30;;
9080;SDS011;13509;50.760;6.080;2022-09-17T05:57:27;7.67;;;1.83;;
9080;SDS011;13509;50.760;6.080;2022-09-17T05:59:57;8.87;;;2.00;;
9080;SDS011;13509;50.760;6.080;2022-09-17T06:02:25;8.83;;;2.00;;
9080;SDS011;13509;50.760;6.080;2022-09-17T06:04:53;13.63;;;2.20;;
9080;SDS011;13509;50.760;6.080;2022-09-17T06:07:26;6.70;;;2.50;;
9080;SDS011;13509;50.760;6.080;2022-09-17T06:09:54;6.00;;;2.20;;
9080;SDS011;13509;50.760;6.080;2022-09-17T06:12:22;6.07;;;2.00;;
9080;SDS011;13509;50.760;6.080;2022-09-17T06:14:50;5.77;;;2.00;;
9080;SDS011;13509;50.760;6.080;2022-09-17T06:17:20;10.33;;;2.57;;
9080;SDS011;13509;50.760;6.080;2022-09-17T06:19:48;6.27;;;2.63;;
9080;SDS011;13509;50.760;6.080;2022-09-17T06:22:16;7.33;;;2.40;;
9080;SDS011;13509;50.760;6.080;2022-09-17T06:24:45;8.93;;;2.47;;
9080;SDS011;13509;50.760;6.080;2022-09-17T06:27:13;7.50;;;2.50;;
9080;SDS011;13509;50.760;6.080;2022-09-17T06:29:41;7.13;;;2.47;;
9080;SDS011;13509;50.760;6.080;2022-09-17T06:32:09;7.87;;;2.53;;
9080;SDS011;13509;50.760;6.080;2022-09-17T06:34:42;7.73;;;2.30;;
9080;SDS011;13509;50.760;6.080;2022-09-17T06:37:10;13.00;;;2.40;;
9080;SDS011;13509;50.760;6.080;2022-09-17T06:39:38;9.60;;;2.10;;
9080;SDS011;13509;50.760;6.080;2022-09-17T06:42:06;10.20;;;2.77;;
9080;SDS011;13509;50.760;6.080;2022-09-17T06:44:34;7.93;;;2.17;;
9080;SDS011;13509;50.760;6.080;2022-09-17T06:47:03;7.07;;;2.00;;
9080;SDS011;13509;50.760;6.080;2022-09-17T06:49:33;2.50;;;1.43;;
9080;SDS011;13509;50.760;6.080;2022-09-17T06:52:02;7.20;;;1.80;;
9080;SDS011;13509;50.760;6.080;2022-09-17T06:54:30;12.87;;;2.47;;
9080;SDS011;13509;50.760;6.080;2022-09-17T06:56:59;6.83;;;2.20;;
9080;SDS011;13509;50.760;6.080;2022-09-17T06:59:27;5.57;;;2.00;;
9080;SDS011;13509;50.760;6.080;2022-09-17T07:01:55;9.27;;;2.03;;
9080;SDS011;13509;50.760;6.080;2022-09-17T07:04:23;7.97;;;2.07;;
9080;SDS011;13509;50.760;6.080;2022-09-17T07:06:51;9.13;;;2.00;;
9080;SDS011;13509;50.760;6.080;2022-09-17T07:09:21;6.97;;;2.20;;
9080;SDS011;13509;50.760;6.080;2022-09-17T07:11:49;10.13;;;2.63;;
9080;SDS011;13509;50.760;6.080;2022-09-17T07:14:17;6.90;;;2.20;;
9080;SDS011;13509;50.760;6.080;2022-09-17T07:16:46;6.10;;;2.20;;
9080;SDS011;13509;50.760;6.080;2022-09-17T07:19:14;10.77;;;2.33;;
9080;SDS011;13509;50.760;6.080;2022-09-17T07:21:42;12.23;;;2.73;;
9080;SDS011;13509;50.760;6.080;2022-09-17T07:24:10;8.37;;;2.87;;
9080;SDS011;13509;50.760;6.080;2022-09-17T07:26:40;6.60;;;2.00;;
9080;SDS011;13509;50.760;6.080;2022-09-17T07:29:08;11.63;;;2.77;;
9080;SDS011;13509;50.760;6.080;2022-09-17T07:31:37;7.63;;;2.07;;
9080;SDS011;13509;50.760;6.080;2022-09-17T07:34:05;6.83;;;2.17;;
9080;SDS011;13509;50.760;6.080;2022-09-17T07:36:33;7.37;;;2.10;;
9080;SDS011;13509;50.760;6.080;2022-09-17T07:39:01;11.87;;;2.07;;
9080;SDS011;13509;50.760;6.080;2022-09-17T07:41:30;6.47;;;1.90;;
9080;SDS011;13509;50.760;6.080;2022-09-17T07:44:01;7.57;;;1.80;;
9080;SDS011;13509;50.760;6.080;2022-09-17T07:46:29;11.60;;;2.20;;
9080;SDS011;13509;50.760;6.080;2022-09-17T07:48:57;12.57;;;2.60;;
9080;SDS011;13509;50.760;6.080;2022-09-17T07:51:25;6.03;;;2.00;;
9080;SDS011;13509;50.760;6.080;2022-09-17T07:53:54;7.30;;;2.33;;
9080;SDS011;13509;50.760;6.080;2022-09-17T07:56:24;5.10;;;1.80;;
9080;SDS011;13509;50.760;6.080;2022-09-17T07:58:52;11.20;;;2.23;;
9080;SDS011;13509;50.760;6.080;2022-09-17T08:01:22;7.97;;;2.20;;
9080;SDS011;13509;50.760;6.080;2022-09-17T08:03:52;9.63;;;3.10;;
9080;SDS011;13509;50.760;6.080;2022-09-17T08:06:22;12.30;;;2.30;;
9080;SDS011;13509;50.760;6.080;2022-09-17T08:08:51;7.40;;;2.27;;
9080;SDS011;13509;50.760;6.080;2022-09-17T08:11:19;4.67;;;1.67;;
9080;SDS011;13509;50.760;6.080;2022-09-17T08:14:08;7.93;;;2.00;;
9080;SDS011;13509;50.760;6.080;2022-09-17T08:16:39;3.93;;;1.90;;
9080;SDS011;13509;50.760;6.080;2022-09-17T08:19:07;4.67;;;1.90;;
9080;SDS011;13509;50.760;6.080;2022-09-17T08:21:36;6.40;;;1.53;;
9080;SDS011;13509;50.760;6.080;2022-09-17T08:24:04;8.87;;;3.43;;
9080;SDS011;13509;50.760;6.080;2022-09-17T08:26:32;7.10;;;2.03;;
9080;SDS011;13509;50.760;6.080;2022-09-17T08:29:01;5.57;;;2.20;;
9080;SDS011;13509;50.760;6.080;2022-09-17T08:31:29;4.03;;;1.60;;
9080;SDS011;13509;50.760;6.080;2022-09-17T08:34:00;6.30;;;1.50;;
9080;SDS011;13509;50.760;6.080;2022-09-17T08:36:28;2.70;;;1.30;;
9080;SDS011;13509;50.760;6.080;2022-09-17T08:38:56;4.50;;;1.70;;
9080;SDS011;13509;50.760;6.080;2022-09-17T08:41:25;6.40;;;1.17;;
9080;SDS011;13509;50.760;6.080;2022-09-17T08:43:59;6.23;;;1.63;;
9080;SDS011;13509;50.760;6.080;2022-09-17T08:46:30;8.17;;;1.80;;
9080;SDS011;13509;50.760;6.080;2022-09-17T08:49:04;5.87;;;1.53;;
9080;SDS011;13509;50.760;6.080;2022-09-17T08:51:36;4.73;;;1.53;;
9080;SDS011;13509;50.760;6.080;2022-09-17T08:54:07;8.37;;;1.40;;
9080;SDS011;13509;50.760;6.080;2022-09-17T08:56:37;6.53;;;1.67;;
9080;SDS011;13509;50.760;6.080;2022-09-17T08:59:15;6.90;;;1.70;;
9080;SDS011;13509;50.760;6.080;2022-09-17T09:01:49;4.53;;;1.33;;
9080;SDS011;13509;50.760;6.080;2022-09-17T09:04:28;5.70;;;1.60;;
9080;SDS011;13509;50.760;6.080;2022-09-17T09:07:01;5.73;;;1.50;;
9080;SDS011;13509;50.760;6.080;2022-09-17T09:09:32;4.30;;;1.70;;
9080;SDS011;13509;50.760;6.080;2022-09-17T09:12:03;6.77;;;1.40;;
9080;SDS011;13509;50.760;6.080;2022-09-17T09:14:32;7.67;;;1.30;;
9080;SDS011;13509;50.760;6.080;2022-09-17T09:17:04;4.07;;;1.67;;
9080;SDS011;13509;50.760;6.080;2022-09-17T09:19:38;6.83;;;1.90;;
9080;SDS011;13509;50.760;6.080;2022-09-17T09:22:22;5.97;;;1.50;;
9080;SDS011;13509;50.760;6.080;2022-09-17T09:24:57;7.37;;;1.70;;
9080;SDS011;13509;50.760;6.080;2022-09-17T09:27:27;7.93;;;2.00;;
9080;SDS011;13509;50.760;6.080;2022-09-17T09:29:58;4.93;;;2.13;;
9080;SDS011;13509;50.760;6.080;2022-09-17T09:32:33;12.37;;;2.00;;
9080;SDS011;13509;50.760;6.080;2022-09-17T09:35:13;5.27;;;1.30;;
9080;SDS011;13509;50.760;6.080;2022-09-17T09:37:42;6.37;;;1.70;;
9080;SDS011;13509;50.760;6.080;2022-09-17T09:40:17;8.17;;;1.50;;
9080;SDS011;13509;50.760;6.080;2022-09-17T09:42:46;8.00;;;1.43;;
9080;SDS011;13509;50.760;6.080;2022-09-17T09:45:15;4.93;;;1.13;;
9080;SDS011;13509;50.760;6.080;2022-09-17T09:47:47;4.10;;;1.30;;
9080;SDS011;13509;50.760;6.080;2022-09-17T09:50:21;6.70;;;1.40;;
9080;SDS011;13509;50.760;6.080;2022-09-17T09:53:14;3.77;;;1.23;;
9080;SDS011;13509;50.760;6.080;2022-09-17T09:55:50;3.97;;;1.20;;
9080;SDS011;13509;50.760;6.080;2022-09-17T09:58:22;4.77;;;1.50;;
9080;SDS011;13509;50.760;6.080;2022-09-17T10:00:51;4.27;;;1.30;;
9080;SDS011;13509;50.760;6.080;2022-09-17T10:03:20;4.67;;;1.00;;
9080;SDS011;13509;50.760;6.080;2022-09-17T10:05:56;4.37;;;1.27;;
9080;SDS011;13509;50.760;6.080;2022-09-17T10:08:26;8.73;;;1.50;;
9080;SDS011;13509;50.760;6.080;2022-09-17T10:10:55;3.90;;;1.40;;
9080;SDS011;13509;50.760;6.080;2022-09-17T10:13:24;3.00;;;1.10;;
9080;SDS011;13509;50.760;6.080;2022-09-17T10:15:52;4.93;;;1.23;;
9080;SDS011;13509;50.760;6.080;2022-09-17T10:18:21;3.07;;;1.10;;
9080;SDS011;13509;50.760;6.080;2022-09-17T10:20:54;6.47;;;1.70;;
9080;SDS011;13509;50.760;6.080;2022-09-17T10:23:24;6.27;;;2.00;;
9080;SDS011;13509;50.760;6.080;2022-09-17T10:25:53;3.60;;;1.60;;
9080;SDS011;13509;50.760;6.080;2022-09-17T10:28:28;3.93;;;1.23;;
9080;SDS011;13509;50.760;6.080;2022-09-17T10:30:57;3.93;;;1.20;;
9080;SDS011;13509;50.760;6.080;2022-09-17T10:33:31;3.97;;;1.20;;
9080;SDS011;13509;50.760;6.080;2022-09-17T10:36:03;4.93;;;1.23;;
9080;SDS011;13509;50.760;6.080;2022-09-17T10:38:33;5.03;;;1.20;;
9080;SDS011;13509;50.760;6.080;2022-09-17T10:41:12;6.50;;;1.60;;
9080;SDS011;13509;50.760;6.080;2022-09-17T10:43:40;5.20;;;1.27;;
9080;SDS011;13509;50.760;6.080;2022-09-17T10:46:10;5.20;;;1.30;;
9080;SDS011;13509;50.760;6.080;2022-09-17T10:48:40;4.70;;;1.17;;
9080;SDS011;13509;50.760;6.080;2022-09-17T10:51:10;3.43;;;1.10;;
9080;SDS011;13509;50.760;6.080;2022-09-17T10:54:00;4.33;;;1.20;;
9080;SDS011;13509;50.760;6.080;2022-09-17T10:56:30;2.87;;;0.93;;
9080;SDS011;13509;50.760;6.080;2022-09-17T10:59:14;3.47;;;1.20;;
9080;SDS011;13509;50.760;6.080;2022-09-17T11:01:47;3.07;;;1.03;;
9080;SDS011;13509;50.760;6.080;2022-09-17T11:04:20;2.67;;;1.00;;
9080;SDS011;13509;50.760;6.080;2022-09-17T11:07:01;3.80;;;1.13;;
9080;SDS011;13509;50.760;6.080;2022-09-17T11:09:36;5.93;;;1.10;;
9080;SDS011;13509;50.760;6.080;2022-09-17T11:12:14;6.23;;;1.10;;
9080;SDS011;13509;50.760;6.080;2022-09-17T11:14:48;4.63;;;0.90;;
9080;SDS011;13509;50.760;6.080;2022-09-17T11:20:03;8.13;;;1.30;;
9080;SDS011;13509;50.760;6.080;2022-09-17T11:22:35;5.97;;;1.50;;
9080;SDS011;13509;50.760;6.080;2022-09-17T11:25:20;3.80;;;0.90;;
9080;SDS011;13509;50.760;6.080;2022-09-17T11:27:54;3.97;;;1.10;;
9080;SDS011;13509;50.760;6.080;2022-09-17T11:30:25;3.07;;;1.13;;
9080;SDS011;13509;50.760;6.080;2022-09-17T11:33:12;2.37;;;0.97;;
9080;SDS011;13509;50.760;6.080;2022-09-17T11:35:44;3.57;;;1.20;;
9080;SDS011;13509;50.760;6.080;2022-09-17T11:38:15;6.47;;;1.20;;
9080;SDS011;13509;50.760;6.080;2022-09-17T11:40:46;4.33;;;1.20;;
9080;SDS011;13509;50.760;6.080;2022-09-17T11:43:17;3.93;;;1.17;;
9080;SDS011;13509;50.760;6.080;2022-09-17T11:45:51;9.80;;;1.60;;
9080;SDS011;13509;50.760;6.080;2022-09-17T11:48:24;3.87;;;1.10;;
9080;SDS011;13509;50.760;6.080;2022-09-17T11:50:56;5.33;;;1.40;;
9080;SDS011;13509;50.760;6.080;2022-09-17T11:53:28;6.37;;;1.90;;
9080;SDS011;13509;50.760;6.080;2022-09-17T11:56:01;4.13;;;1.27;;
9080;SDS011;13509;50.760;6.080;2022-09-17T11:58:31;2.93;;;1.10;;
9080;SDS011;13509;50.760;6.080;2022-09-17T12:01:01;3.10;;;0.80;;
9080;SDS011;13509;50.760;6.080;2022-09-17T12:03:31;3.23;;;1.00;;
9080;SDS011;13509;50.760;6.080;2022-09-17T12:06:02;2.93;;;1.00;;
9080;SDS011;13509;50.760;6.080;2022-09-17T12:08:33;3.30;;;1.10;;
9080;SDS011;13509;50.760;6.080;2022-09-17T12:11:08;3.63;;;1.43;;
9080;SDS011;13509;50.760;6.080;2022-09-17T12:13:41;2.60;;;1.17;;
9080;SDS011;13509;50.760;6.080;2022-09-17T12:16:15;2.57;;;1.60;;
9080;SDS011;13509;50.760;6.080;2022-09-17T12:18:48;3.90;;;2.07;;
9080;SDS011;13509;50.760;6.080;2022-09-17T12:21:19;3.13;;;1.43;;
9080;SDS011;13509;50.760;6.080;2022-09-17T12:23:49;3.40;;;1.33;;
9080;SDS011;13509;50.760;6.080;2022-09-17T12:26:25;4.50;;;1.10;;
9080;SDS011;13509;50.760;6.080;2022-09-17T12:28:59;4.73;;;1.13;;
9080;SDS011;13509;50.760;6.080;2022-09-17T12:31:31;4.50;;;0.97;;
9080;SDS011;13509;50.760;6.080;2022-09-17T12:34:07;3.20;;;1.00;;
9080;SDS011;13509;50.760;6.080;2022-09-17T12:36:39;5.40;;;1.10;;
9080;SDS011;13509;50.760;6.080;2022-09-17T12:39:29;3.80;;;1.23;;
9080;SDS011;13509;50.760;6.080;2022-09-17T12:42:01;3.30;;;1.30;;
9080;SDS011;13509;50.760;6.080;2022-09-17T12:44:40;5.30;;;1.30;;
9080;SDS011;13509;50.760;6.080;2022-09-17T12:47:16;3.80;;;1.10;;
9080;SDS011;13509;50.760;6.080;2022-09-17T12:49:53;2.57;;;1.20;;
9080;SDS011;13509;50.760;6.080;2022-09-17T12:52:25;3.23;;;1.23;;
9080;SDS011;13509;50.760;6.080;2022-09-17T12:55:05;3.83;;;1.07;;
9080;SDS011;13509;50.760;6.080;2022-09-17T12:57:37;3.47;;;1.20;;
9080;SDS011;13509;50.760;6.080;2022-09-17T13:00:08;5.13;;;1.33;;
9080;SDS011;13509;50.760;6.080;2022-09-17T13:02:37;1.00;;;0.67;;
9080;SDS011;13509;50.760;6.080;2022-09-17T13:05:20;2.23;;;0.63;;
9080;SDS011;13509;50.760;6.080;2022-09-17T13:13:31;2.07;;;0.70;;
9080;SDS011;13509;50.760;6.080;2022-09-17T13:16:06;0.97;;;0.67;;
9080;SDS011;13509;50.760;6.080;2022-09-17T13:18:42;1.47;;;0.93;;
9080;SDS011;13509;50.760;6.080;2022-09-17T13:21:31;5.07;;;0.77;;
9080;SDS011;13509;50.760;6.080;2022-09-17T13:24:00;3.47;;;1.00;;
9080;SDS011;13509;50.760;6.080;2022-09-17T13:26:32;1.50;;;0.70;;
9080;SDS011;13509;50.760;6.080;2022-09-17T13:29:02;3.13;;;0.80;;
9080;SDS011;13509;50.760;6.080;2022-09-17T13:34:27;5.57;;;1.03;;
9080;SDS011;13509;50.760;6.080;2022-09-17T13:36:56;1.90;;;0.63;;
9080;SDS011;13509;50.760;6.080;2022-09-17T13:39:38;2.97;;;1.00;;
9080;SDS011;13509;50.760;6.080;2022-09-17T13:42:08;1.77;;;0.93;;
9080;SDS011;13509;50.760;6.080;2022-09-17T13:44:39;4.27;;;1.20;;
9080;SDS011;13509;50.760;6.080;2022-09-17T13:47:09;1.67;;;0.70;;
9080;SDS011;13509;50.760;6.080;2022-09-17T13:49:42;6.17;;;1.10;;
9080;SDS011;13509;50.760;6.080;2022-09-17T13:52:11;1.03;;;0.60;;
9080;SDS011;13509;50.760;6.080;2022-09-17T13:54:39;2.17;;;0.80;;
9080;SDS011;13509;50.760;6.080;2022-09-17T13:57:09;0.90;;;0.80;;
9080;SDS011;13509;50.760;6.080;2022-09-17T13:59:39;2.30;;;0.80;;
9080;SDS011;13509;50.760;6.080;2022-09-17T14:07:51;1.10;;;0.70;;
9080;SDS011;13509;50.760;6.080;2022-09-17T14:10:33;1.53;;;0.53;;
9080;SDS011;13509;50.760;6.080;2022-09-17T14:15:57;4.33;;;1.00;;
9080;SDS011;13509;50.760;6.080;2022-09-17T14:18:36;3.87;;;0.63;;
9080;SDS011;13509;50.760;6.080;2022-09-17T14:21:05;2.00;;;1.00;;
9080;SDS011;13509;50.760;6.080;2022-09-17T14:23:34;2.27;;;0.60;;
9080;SDS011;13509;50.760;6.080;2022-09-17T14:26:11;2.40;;;0.70;;
9080;SDS011;13509;50.760;6.080;2022-09-17T14:28:42;3.10;;;0.70;;
9080;SDS011;13509;50.760;6.080;2022-09-17T14:31:16;3.07;;;1.07;;
9080;SDS011;13509;50.760;6.080;2022-09-17T14:33:45;3.50;;;1.23;;
9080;SDS011;13509;50.760;6.080;2022-09-17T14:36:15;2.93;;;1.00;;
9080;SDS011;13509;50.760;6.080;2022-09-17T14:38:45;5.07;;;1.00;;
9080;SDS011;13509;50.760;6.080;2022-09-17T14:41:17;5.13;;;1.03;;
9080;SDS011;13509;50.760;6.080;2022-09-17T14:43:47;2.70;;;1.00;;
9080;SDS011;13509;50.760;6.080;2022-09-17T14:46:19;6.73;;;1.10;;
9080;SDS011;13509;50.760;6.080;2022-09-17T14:48:49;3.20;;;0.87;;
9080;SDS011;13509;50.760;6.080;2022-09-17T14:51:24;1.63;;;1.20;;
9080;SDS011;13509;50.760;6.080;2022-09-17T14:54:06;3.90;;;1.33;;
9080;SDS011;13509;50.760;6.080;2022-09-17T14:56:40;3.47;;;1.00;;
9080;SDS011;13509;50.760;6.080;2022-09-17T14:59:13;1.70;;;1.03;;
9080;SDS011;13509;50.760;6.080;2022-09-17T15:01:47;3.23;;;1.10;;
9080;SDS011;13509;50.760;6.080;2022-09-17T15:04:19;4.10;;;1.00;;
9080;SDS011;13509;50.760;6.080;2022-09-17T15:06:48;5.53;;;1.20;;
9080;SDS011;13509;50.760;6.080;2022-09-17T15:09:17;4.20;;;1.10;;
9080;SDS011;13509;50.760;6.080;2022-09-17T15:11:46;3.37;;;1.20;;
9080;SDS011;13509;50.760;6.080;2022-09-17T15:14:15;4.63;;;1.17;;
9080;SDS011;13509;50.760;6.080;2022-09-17T15:16:46;9.03;;;1.50;;
9080;SDS011;13509;50.760;6.080;2022-09-17T15:19:19;5.07;;;1.60;;
9080;SDS011;13509;50.760;6.080;2022-09-17T15:21:49;4.80;;;1.30;;
9080;SDS011;13509;50.760;6.080;2022-09-17T15:24:22;5.53;;;1.20;;
9080;SDS011;13509;50.760;6.080;2022-09-17T15:26:55;7.07;;;1.40;;
9080;SDS011;13509;50.760;6.080;2022-09-17T15:29:25;3.23;;;1.30;;
9080;SDS011;13509;50.760;6.080;2022-09-17T15:31:54;5.63;;;1.20;;
9080;SDS011;13509;50.760;6.080;2022-09-17T15:34:24;5.37;;;1.30;;
9080;SDS011;13509;50.760;6.080;2022-09-17T15:37:02;4.20;;;1.40;;
9080;SDS011;13509;50.760;6.080;2022-09-17T15:39:36;3.13;;;1.00;;
9080;SDS011;13509;50.760;6.080;2022-09-17T15:42:13;7.07;;;1.70;;
9080;SDS011;13509;50.760;6.080;2022-09-17T15:44:44;5.53;;;1.60;;
9080;SDS011;13509;50.760;6.080;2022-09-17T15:50:13;5.33;;;1.23;;
9080;SDS011;13509;50.760;6.080;2022-09-17T15:52:42;6.70;;;1.57;;